sensor_id;sensor_type;location;lat;lon;timestamp;P1;durP1;ratioP1;P2;durP2;ratioP2
29824;SDS011;16713;52.916;12.834;2022-10-22T00:00:43;21.98;;;15.93;;
29824;SDS011;16713;52.916;12.834;2022-10-22T00:03:10;26.67;;;15.82;;
29824;SDS011;16713;52.916;12.834;2022-10-22T00:05:36;26.50;;;16.23;;
29824;SDS011;16713;52.916;12.834;2022-10-22T00:08:02;25.63;;;14.95;;
29824;SDS011;16713;52.916;12.834;2022-10-22T00:10:29;24.60;;;17.05;;
29824;SDS011;16713;52.916;12.834;2022-10-22T00:12:55;19.45;;;14.15;;
29824;SDS011;16713;52.916;12.834;2022-10-22T00:15:22;22.52;;;14.80;;
29824;SDS011;16713;52.916;12.834;2022-10-22T00:17:48;21.42;;;15.13;;
29824;SDS011;16713;52.916;12.834;2022-10-22T00:20:15;22.98;;;14.98;;
29824;SDS011;16713;52.916;12.834;2022-10-22T00:22:41;21.23;;;15.60;;
29824;SDS011;16713;52.916;12.834;2022-10-22T00:25:07;19.48;;;14.43;;
29824;SDS011;16713;52.916;12.834;2022-10-22T00:27:34;25.20;;;15.60;;
29824;SDS011;16713;52.916;12.834;2022-10-22T00:30:00;20.63;;;15.57;;
29824;SDS011;16713;52.916;12.834;2022-10-22T00:32:27;19.83;;;14.73;;
29824;SDS011;16713;52.916;12.834;2022-10-22T00:34:53;24.23;;;14.57;;
29824;SDS011;16713;52.916;12.834;2022-10-22T00:37:19;22.75;;;14.82;;
29824;SDS011;16713;52.916;12.834;2022-10-22T00:39:46;18.77;;;13.77;;
29824;SDS011;16713;52.916;12.834;2022-10-22T00:42:17;18.35;;;14.32;;
29824;SDS011;16713;52.916;12.834;2022-10-22T00:47:32;19.45;;;13.73;;
29824;SDS011;16713;52.916;12.834;2022-10-22T00:50:01;17.30;;;13.57;;
29824;SDS011;16713;52.916;12.834;2022-10-22T00:52:30;20.75;;;14.32;;
29824;SDS011;16713;52.916;12.834;2022-10-22T00:54:57;18.50;;;13.82;;
29824;SDS011;16713;52.916;12.834;2022-10-22T00:57:23;17.95;;;14.32;;
29824;SDS011;16713;52.916;12.834;2022-10-22T00:59:49;16.35;;;13.05;;
29824;SDS011;16713;52.916;12.834;2022-10-22T01:02:16;15.50;;;12.43;;
29824;SDS011;16713;52.916;12.834;2022-10-22T01:04:43;16.73;;;13.30;;
29824;SDS011;16713;52.916;12.834;2022-10-22T01:07:17;12.30;;;10.82;;
29824;SDS011;16713;52.916;12.834;2022-10-22T01:09:49;14.80;;;10.63;;
29824;SDS011;16713;52.916;12.834;2022-10-22T01:15:30;14.60;;;11.05;;
29824;SDS011;16713;52.916;12.834;2022-10-22T01:18:07;14.60;;;11.63;;
29824;SDS011;16713;52.916;12.834;2022-10-22T01:29:00;26.47;;;17.00;;
29824;SDS011;16713;52.916;12.834;2022-10-22T01:31:32;23.95;;;16.13;;
29824;SDS011;16713;52.916;12.834;2022-10-22T01:34:03;17.67;;;14.43;;
29824;SDS011;16713;52.916;12.834;2022-10-22T01:36:33;24.08;;;14.88;;
29824;SDS011;16713;52.916;12.834;2022-10-22T01:39:00;21.10;;;14.70;;
29824;SDS011;16713;52.916;12.834;2022-10-22T01:41:29;18.63;;;15.43;;
29824;SDS011;16713;52.916;12.834;2022-10-22T01:43:56;20.80;;;14.60;;
29824;SDS011;16713;52.916;12.834;2022-10-22T01:46:23;20.17;;;13.63;;
29824;SDS011;16713;52.916;12.834;2022-10-22T01:54:26;16.15;;;10.93;;
29824;SDS011;16713;52.916;12.834;2022-10-22T01:57:04;15.30;;;12.15;;
29824;SDS011;16713;52.916;12.834;2022-10-22T01:59:44;18.08;;;11.95;;
29824;SDS011;16713;52.916;12.834;2022-10-22T02:05:15;16.80;;;12.10;;
29824;SDS011;16713;52.916;12.834;2022-10-22T02:08:15;19.25;;;13.57;;
29824;SDS011;16713;52.916;12.834;2022-10-22T02:10:45;23.05;;;14.05;;
29824;SDS011;16713;52.916;12.834;2022-10-22T02:13:15;22.63;;;14.10;;
29824;SDS011;16713;52.916;12.834;2022-10-22T02:15:46;22.88;;;14.52;;
29824;SDS011;16713;52.916;12.834;2022-10-22T02:18:17;25.35;;;16.30;;
29824;SDS011;16713;52.916;12.834;2022-10-22T02:20:46;24.30;;;16.20;;
29824;SDS011;16713;52.916;12.834;2022-10-22T02:23:14;28.00;;;15.85;;
29824;SDS011;16713;52.916;12.834;2022-10-22T02:25:41;21.08;;;15.00;;
29824;SDS011;16713;52.916;12.834;2022-10-22T02:28:15;18.83;;;13.75;;
29824;SDS011;16713;52.916;12.834;2022-10-22T02:30:51;19.45;;;14.40;;
29824;SDS011;16713;52.916;12.834;2022-10-22T02:33:21;19.13;;;13.65;;
29824;SDS011;16713;52.916;12.834;2022-10-22T02:35:51;19.25;;;13.98;;
29824;SDS011;16713;52.916;12.834;2022-10-22T02:38:19;20.55;;;14.20;;
29824;SDS011;16713;52.916;12.834;2022-10-22T02:40:48;20.58;;;13.77;;
29824;SDS011;16713;52.916;12.834;2022-10-22T02:43:16;21.85;;;14.50;;
29824;SDS011;16713;52.916;12.834;2022-10-22T02:45:43;20.08;;;15.05;;
29824;SDS011;16713;52.916;12.834;2022-10-22T02:48:09;25.75;;;17.20;;
29824;SDS011;16713;52.916;12.834;2022-10-22T02:50:36;22.90;;;16.15;;
29824;SDS011;16713;52.916;12.834;2022-10-22T02:53:02;24.17;;;16.80;;
29824;SDS011;16713;52.916;12.834;2022-10-22T02:55:29;27.40;;;17.50;;
29824;SDS011;16713;52.916;12.834;2022-10-22T02:57:55;24.30;;;17.65;;
29824;SDS011;16713;52.916;12.834;2022-10-22T03:00:22;26.75;;;18.38;;
29824;SDS011;16713;52.916;12.834;2022-10-22T03:02:48;25.55;;;17.77;;
29824;SDS011;16713;52.916;12.834;2022-10-22T03:05:14;27.67;;;18.55;;
29824;SDS011;16713;52.916;12.834;2022-10-22T03:07:41;29.98;;;19.05;;
29824;SDS011;16713;52.916;12.834;2022-10-22T03:10:08;28.00;;;18.85;;
29824;SDS011;16713;52.916;12.834;2022-10-22T03:12:34;28.52;;;18.80;;
29824;SDS011;16713;52.916;12.834;2022-10-22T03:15:01;25.58;;;18.50;;
29824;SDS011;16713;52.916;12.834;2022-10-22T03:17:27;29.58;;;19.92;;
29824;SDS011;16713;52.916;12.834;2022-10-22T03:19:54;31.42;;;20.15;;
29824;SDS011;16713;52.916;12.834;2022-10-22T03:22:21;28.75;;;18.63;;
29824;SDS011;16713;52.916;12.834;2022-10-22T03:24:51;29.40;;;18.85;;
29824;SDS011;16713;52.916;12.834;2022-10-22T03:27:20;26.67;;;19.10;;
29824;SDS011;16713;52.916;12.834;2022-10-22T03:29:48;28.25;;;19.05;;
29824;SDS011;16713;52.916;12.834;2022-10-22T03:32:16;25.42;;;18.40;;
29824;SDS011;16713;52.916;12.834;2022-10-22T03:34:42;26.98;;;18.75;;
29824;SDS011;16713;52.916;12.834;2022-10-22T03:37:09;26.42;;;18.30;;
29824;SDS011;16713;52.916;12.834;2022-10-22T03:39:36;24.33;;;18.05;;
29824;SDS011;16713;52.916;12.834;2022-10-22T03:42:03;24.13;;;18.77;;
29824;SDS011;16713;52.916;12.834;2022-10-22T03:44:31;23.70;;;16.25;;
29824;SDS011;16713;52.916;12.834;2022-10-22T03:46:58;24.27;;;17.33;;
29824;SDS011;16713;52.916;12.834;2022-10-22T03:49:28;22.92;;;16.80;;
29824;SDS011;16713;52.916;12.834;2022-10-22T03:51:54;24.58;;;17.33;;
29824;SDS011;16713;52.916;12.834;2022-10-22T03:54:20;23.80;;;17.17;;
29824;SDS011;16713;52.916;12.834;2022-10-22T03:56:47;26.05;;;16.60;;
29824;SDS011;16713;52.916;12.834;2022-10-22T03:59:13;25.30;;;17.17;;
29824;SDS011;16713;52.916;12.834;2022-10-22T04:01:40;24.42;;;16.95;;
29824;SDS011;16713;52.916;12.834;2022-10-22T04:04:06;23.15;;;15.55;;
29824;SDS011;16713;52.916;12.834;2022-10-22T04:06:33;24.33;;;15.43;;
29824;SDS011;16713;52.916;12.834;2022-10-22T04:08:59;20.33;;;15.45;;
29824;SDS011;16713;52.916;12.834;2022-10-22T04:11:27;23.30;;;15.88;;
29824;SDS011;16713;52.916;12.834;2022-10-22T04:13:53;22.35;;;15.30;;
29824;SDS011;16713;52.916;12.834;2022-10-22T04:16:20;23.38;;;16.23;;
29824;SDS011;16713;52.916;12.834;2022-10-22T04:18:52;23.60;;;17.08;;
29824;SDS011;16713;52.916;12.834;2022-10-22T04:21:18;24.58;;;16.02;;
29824;SDS011;16713;52.916;12.834;2022-10-22T04:23:45;23.63;;;16.73;;
29824;SDS011;16713;52.916;12.834;2022-10-22T04:26:14;24.58;;;16.75;;
29824;SDS011;16713;52.916;12.834;2022-10-22T04:28:41;20.88;;;15.48;;
29824;SDS011;16713;52.916;12.834;2022-10-22T04:31:09;21.15;;;16.48;;
29824;SDS011;16713;52.916;12.834;2022-10-22T04:33:37;20.15;;;16.17;;
29824;SDS011;16713;52.916;12.834;2022-10-22T04:36:11;18.90;;;14.55;;
29824;SDS011;16713;52.916;12.834;2022-10-22T04:38:43;20.50;;;15.20;;
29824;SDS011;16713;52.916;12.834;2022-10-22T04:41:14;20.50;;;15.07;;
29824;SDS011;16713;52.916;12.834;2022-10-22T04:43:46;17.70;;;14.23;;
29824;SDS011;16713;52.916;12.834;2022-10-22T04:46:13;18.63;;;14.30;;
29824;SDS011;16713;52.916;12.834;2022-10-22T04:48:41;18.90;;;14.25;;
29824;SDS011;16713;52.916;12.834;2022-10-22T04:51:16;16.85;;;13.75;;
29824;SDS011;16713;52.916;12.834;2022-10-22T04:53:44;20.15;;;14.40;;
29824;SDS011;16713;52.916;12.834;2022-10-22T04:56:15;17.63;;;14.07;;
29824;SDS011;16713;52.916;12.834;2022-10-22T04:58:50;17.98;;;13.82;;
29824;SDS011;16713;52.916;12.834;2022-10-22T05:03:53;17.63;;;13.57;;
29824;SDS011;16713;52.916;12.834;2022-10-22T05:06:21;19.92;;;14.35;;
29824;SDS011;16713;52.916;12.834;2022-10-22T05:08:52;17.98;;;13.90;;
29824;SDS011;16713;52.916;12.834;2022-10-22T05:11:36;17.73;;;13.33;;
29824;SDS011;16713;52.916;12.834;2022-10-22T05:14:06;17.17;;;12.50;;
29824;SDS011;16713;52.916;12.834;2022-10-22T05:16:34;16.52;;;11.98;;
29824;SDS011;16713;52.916;12.834;2022-10-22T05:19:01;15.88;;;12.52;;
29824;SDS011;16713;52.916;12.834;2022-10-22T05:21:28;16.20;;;12.40;;
29824;SDS011;16713;52.916;12.834;2022-10-22T05:23:55;17.85;;;12.93;;
29824;SDS011;16713;52.916;12.834;2022-10-22T05:26:22;16.35;;;12.30;;
29824;SDS011;16713;52.916;12.834;2022-10-22T05:28:50;15.98;;;12.90;;
29824;SDS011;16713;52.916;12.834;2022-10-22T05:31:17;20.27;;;13.07;;
29824;SDS011;16713;52.916;12.834;2022-10-22T05:33:44;18.40;;;12.77;;
29824;SDS011;16713;52.916;12.834;2022-10-22T05:36:12;16.98;;;13.55;;
29824;SDS011;16713;52.916;12.834;2022-10-22T05:38:44;19.70;;;13.57;;
29824;SDS011;16713;52.916;12.834;2022-10-22T05:41:12;17.80;;;12.43;;
29824;SDS011;16713;52.916;12.834;2022-10-22T05:43:41;20.40;;;13.93;;
29824;SDS011;16713;52.916;12.834;2022-10-22T05:46:09;19.65;;;13.05;;
29824;SDS011;16713;52.916;12.834;2022-10-22T05:48:50;18.58;;;13.20;;
29824;SDS011;16713;52.916;12.834;2022-10-22T05:51:17;18.15;;;13.07;;
29824;SDS011;16713;52.916;12.834;2022-10-22T05:53:45;17.50;;;12.93;;
29824;SDS011;16713;52.916;12.834;2022-10-22T05:56:12;20.38;;;12.88;;
29824;SDS011;16713;52.916;12.834;2022-10-22T05:58:41;17.58;;;12.48;;
29824;SDS011;16713;52.916;12.834;2022-10-22T06:01:12;18.38;;;13.27;;
29824;SDS011;16713;52.916;12.834;2022-10-22T06:03:43;18.50;;;13.43;;
29824;SDS011;16713;52.916;12.834;2022-10-22T06:06:56;19.00;;;12.50;;
29824;SDS011;16713;52.916;12.834;2022-10-22T06:09:06;25.65;;;12.82;;
29824;SDS011;16713;52.916;12.834;2022-10-22T06:11:41;20.90;;;12.55;;
29824;SDS011;16713;52.916;12.834;2022-10-22T06:14:08;18.13;;;13.15;;
29824;SDS011;16713;52.916;12.834;2022-10-22T06:19:02;16.30;;;12.25;;
29824;SDS011;16713;52.916;12.834;2022-10-22T06:21:29;18.17;;;13.20;;
29824;SDS011;16713;52.916;12.834;2022-10-22T06:23:57;19.67;;;13.20;;
29824;SDS011;16713;52.916;12.834;2022-10-22T06:26:24;17.73;;;13.70;;
29824;SDS011;16713;52.916;12.834;2022-10-22T06:28:51;17.13;;;12.32;;
29824;SDS011;16713;52.916;12.834;2022-10-22T06:31:18;18.52;;;13.52;;
29824;SDS011;16713;52.916;12.834;2022-10-22T06:33:44;18.13;;;13.38;;
29824;SDS011;16713;52.916;12.834;2022-10-22T06:36:11;20.20;;;14.25;;
29824;SDS011;16713;52.916;12.834;2022-10-22T06:38:40;23.27;;;15.45;;
29824;SDS011;16713;52.916;12.834;2022-10-22T06:41:08;18.60;;;13.75;;
29824;SDS011;16713;52.916;12.834;2022-10-22T06:43:40;17.65;;;13.13;;
29824;SDS011;16713;52.916;12.834;2022-10-22T06:46:07;21.27;;;14.65;;
29824;SDS011;16713;52.916;12.834;2022-10-22T06:48:35;21.73;;;14.73;;
29824;SDS011;16713;52.916;12.834;2022-10-22T06:51:03;20.35;;;14.80;;
29824;SDS011;16713;52.916;12.834;2022-10-22T06:53:31;18.83;;;15.15;;
29824;SDS011;16713;52.916;12.834;2022-10-22T06:55:58;22.08;;;15.05;;
29824;SDS011;16713;52.916;12.834;2022-10-22T06:58:29;21.27;;;14.70;;
29824;SDS011;16713;52.916;12.834;2022-10-22T07:01:02;24.73;;;15.32;;
29824;SDS011;16713;52.916;12.834;2022-10-22T07:03:29;19.63;;;14.52;;
29824;SDS011;16713;52.916;12.834;2022-10-22T07:06:03;18.95;;;14.07;;
29824;SDS011;16713;52.916;12.834;2022-10-22T07:08:31;19.15;;;14.02;;
29824;SDS011;16713;52.916;12.834;2022-10-22T07:11:11;19.70;;;13.60;;
29824;SDS011;16713;52.916;12.834;2022-10-22T07:13:40;20.35;;;13.95;;
29824;SDS011;16713;52.916;12.834;2022-10-22T07:16:07;23.05;;;14.65;;
29824;SDS011;16713;52.916;12.834;2022-10-22T07:18:34;18.92;;;14.65;;
29824;SDS011;16713;52.916;12.834;2022-10-22T07:21:02;18.85;;;13.65;;
29824;SDS011;16713;52.916;12.834;2022-10-22T07:23:30;23.73;;;15.02;;
29824;SDS011;16713;52.916;12.834;2022-10-22T07:25:57;21.58;;;15.63;;
29824;SDS011;16713;52.916;12.834;2022-10-22T07:28:24;20.83;;;14.68;;
29824;SDS011;16713;52.916;12.834;2022-10-22T07:30:50;18.52;;;13.88;;
29824;SDS011;16713;52.916;12.834;2022-10-22T07:33:17;22.42;;;15.07;;
29824;SDS011;16713;52.916;12.834;2022-10-22T07:35:43;24.45;;;14.18;;
29824;SDS011;16713;52.916;12.834;2022-10-22T07:38:09;22.42;;;14.10;;
29824;SDS011;16713;52.916;12.834;2022-10-22T07:40:36;19.98;;;14.68;;
29824;SDS011;16713;52.916;12.834;2022-10-22T07:43:03;20.20;;;14.52;;
29824;SDS011;16713;52.916;12.834;2022-10-22T07:45:29;20.52;;;14.82;;
29824;SDS011;16713;52.916;12.834;2022-10-22T07:47:56;20.40;;;14.77;;
29824;SDS011;16713;52.916;12.834;2022-10-22T07:50:22;18.55;;;14.02;;
29824;SDS011;16713;52.916;12.834;2022-10-22T07:52:49;18.02;;;14.27;;
29824;SDS011;16713;52.916;12.834;2022-10-22T07:55:16;23.73;;;15.30;;
29824;SDS011;16713;52.916;12.834;2022-10-22T07:57:43;19.60;;;14.50;;
29824;SDS011;16713;52.916;12.834;2022-10-22T08:00:09;19.92;;;15.38;;
29824;SDS011;16713;52.916;12.834;2022-10-22T08:02:36;19.48;;;14.85;;
29824;SDS011;16713;52.916;12.834;2022-10-22T08:05:03;21.35;;;14.77;;
29824;SDS011;16713;52.916;12.834;2022-10-22T08:07:29;20.13;;;15.63;;
29824;SDS011;16713;52.916;12.834;2022-10-22T08:09:56;18.90;;;14.68;;
29824;SDS011;16713;52.916;12.834;2022-10-22T08:12:22;21.73;;;15.45;;
29824;SDS011;16713;52.916;12.834;2022-10-22T08:14:48;19.70;;;14.98;;
29824;SDS011;16713;52.916;12.834;2022-10-22T08:17:15;20.23;;;15.75;;
29824;SDS011;16713;52.916;12.834;2022-10-22T08:19:41;19.88;;;14.80;;
29824;SDS011;16713;52.916;12.834;2022-10-22T08:22:08;21.88;;;15.15;;
29824;SDS011;16713;52.916;12.834;2022-10-22T08:24:34;26.60;;;15.63;;
29824;SDS011;16713;52.916;12.834;2022-10-22T08:27:01;19.45;;;14.52;;
29824;SDS011;16713;52.916;12.834;2022-10-22T08:29:27;23.08;;;17.10;;
29824;SDS011;16713;52.916;12.834;2022-10-22T08:31:53;20.45;;;15.32;;
29824;SDS011;16713;52.916;12.834;2022-10-22T08:34:20;22.50;;;15.40;;
29824;SDS011;16713;52.916;12.834;2022-10-22T08:36:46;22.02;;;14.68;;
29824;SDS011;16713;52.916;12.834;2022-10-22T08:39:13;19.17;;;14.68;;
29824;SDS011;16713;52.916;12.834;2022-10-22T08:42:03;18.98;;;14.48;;
29824;SDS011;16713;52.916;12.834;2022-10-22T08:50:29;20.45;;;14.38;;
29824;SDS011;16713;52.916;12.834;2022-10-22T08:53:11;21.17;;;14.60;;
29824;SDS011;16713;52.916;12.834;2022-10-22T08:55:40;25.92;;;16.15;;
29824;SDS011;16713;52.916;12.834;2022-10-22T09:00:58;25.88;;;16.35;;
29824;SDS011;16713;52.916;12.834;2022-10-22T09:06:30;23.90;;;16.63;;
29824;SDS011;16713;52.916;12.834;2022-10-22T09:08:52;27.73;;;18.98;;
29824;SDS011;16713;52.916;12.834;2022-10-22T09:11:25;25.45;;;16.73;;
29824;SDS011;16713;52.916;12.834;2022-10-22T09:13:59;31.38;;;19.27;;
29824;SDS011;16713;52.916;12.834;2022-10-22T09:16:33;25.48;;;17.98;;
29824;SDS011;16713;52.916;12.834;2022-10-22T09:22:10;30.55;;;19.85;;
29824;SDS011;16713;52.916;12.834;2022-10-22T09:24:44;30.80;;;18.17;;
29824;SDS011;16713;52.916;12.834;2022-10-22T09:27:14;30.80;;;19.05;;
29824;SDS011;16713;52.916;12.834;2022-10-22T09:29:45;28.70;;;18.77;;
29824;SDS011;16713;52.916;12.834;2022-10-22T09:32:13;33.75;;;20.20;;
29824;SDS011;16713;52.916;12.834;2022-10-22T09:34:42;34.70;;;19.65;;
29824;SDS011;16713;52.916;12.834;2022-10-22T09:37:10;35.05;;;20.70;;
29824;SDS011;16713;52.916;12.834;2022-10-22T09:39:40;31.52;;;19.42;;
29824;SDS011;16713;52.916;12.834;2022-10-22T09:42:11;37.78;;;20.98;;
29824;SDS011;16713;52.916;12.834;2022-10-22T09:44:40;31.58;;;19.48;;
29824;SDS011;16713;52.916;12.834;2022-10-22T09:47:46;33.25;;;20.90;;
29824;SDS011;16713;52.916;12.834;2022-10-22T09:53:11;30.15;;;19.90;;
29824;SDS011;16713;52.916;12.834;2022-10-22T09:55:39;33.50;;;20.45;;
29824;SDS011;16713;52.916;12.834;2022-10-22T09:58:11;32.85;;;21.17;;
29824;SDS011;16713;52.916;12.834;2022-10-22T10:00:39;33.17;;;20.92;;
29824;SDS011;16713;52.916;12.834;2022-10-22T10:03:28;36.25;;;22.52;;
29824;SDS011;16713;52.916;12.834;2022-10-22T10:05:59;36.85;;;21.85;;
29824;SDS011;16713;52.916;12.834;2022-10-22T10:08:31;34.15;;;20.92;;
29824;SDS011;16713;52.916;12.834;2022-10-22T10:13:35;32.70;;;21.65;;
29824;SDS011;16713;52.916;12.834;2022-10-22T10:24:12;34.55;;;22.83;;
29824;SDS011;16713;52.916;12.834;2022-10-22T10:26:59;39.90;;;24.85;;
29824;SDS011;16713;52.916;12.834;2022-10-22T10:29:33;47.97;;;28.52;;
29824;SDS011;16713;52.916;12.834;2022-10-22T10:37:42;51.28;;;28.08;;
29824;SDS011;16713;52.916;12.834;2022-10-22T10:40:39;51.97;;;28.98;;
29824;SDS011;16713;52.916;12.834;2022-10-22T10:43:31;49.88;;;28.38;;
29824;SDS011;16713;52.916;12.834;2022-10-22T10:49:07;50.85;;;29.60;;
29824;SDS011;16713;52.916;12.834;2022-10-22T10:54:35;57.72;;;31.92;;
29824;SDS011;16713;52.916;12.834;2022-10-22T10:57:18;55.08;;;33.50;;
29824;SDS011;16713;52.916;12.834;2022-10-22T11:00:13;58.35;;;33.30;;
29824;SDS011;16713;52.916;12.834;2022-10-22T11:07:54;60.88;;;34.42;;
29824;SDS011;16713;52.916;12.834;2022-10-22T11:13:12;53.90;;;32.50;;
29824;SDS011;16713;52.916;12.834;2022-10-22T11:15:44;61.95;;;35.83;;
29824;SDS011;16713;52.916;12.834;2022-10-22T11:18:19;60.47;;;35.42;;
29824;SDS011;16713;52.916;12.834;2022-10-22T11:23:47;51.13;;;32.50;;
29824;SDS011;16713;52.916;12.834;2022-10-22T11:26:23;52.92;;;32.30;;
29824;SDS011;16713;52.916;12.834;2022-10-22T11:28:57;53.45;;;33.28;;
29824;SDS011;16713;52.916;12.834;2022-10-22T11:31:26;49.08;;;30.75;;
29824;SDS011;16713;52.916;12.834;2022-10-22T11:37:00;49.03;;;31.58;;
29824;SDS011;16713;52.916;12.834;2022-10-22T11:39:34;58.13;;;35.05;;
29824;SDS011;16713;52.916;12.834;2022-10-22T11:42:21;54.70;;;33.67;;
29824;SDS011;16713;52.916;12.834;2022-10-22T11:44:58;47.42;;;33.38;;
29824;SDS011;16713;52.916;12.834;2022-10-22T11:47:34;51.13;;;33.28;;
29824;SDS011;16713;52.916;12.834;2022-10-22T11:50:27;48.88;;;32.33;;
29824;SDS011;16713;52.916;12.834;2022-10-22T11:55:42;48.20;;;33.35;;
29824;SDS011;16713;52.916;12.834;2022-10-22T12:03:42;43.05;;;29.13;;
29824;SDS011;16713;52.916;12.834;2022-10-22T12:11:24;37.70;;;25.80;;
29824;SDS011;16713;52.916;12.834;2022-10-22T12:16:29;30.55;;;22.88;;
29824;SDS011;16713;52.916;12.834;2022-10-22T12:21:54;24.10;;;19.30;;
29824;SDS011;16713;52.916;12.834;2022-10-22T12:24:44;28.70;;;19.60;;
29824;SDS011;16713;52.916;12.834;2022-10-22T12:27:18;26.80;;;17.08;;
29824;SDS011;16713;52.916;12.834;2022-10-22T12:29:48;21.77;;;16.85;;
29824;SDS011;16713;52.916;12.834;2022-10-22T12:34:47;24.65;;;16.95;;
29824;SDS011;16713;52.916;12.834;2022-10-22T12:37:20;19.13;;;14.38;;
29824;SDS011;16713;52.916;12.834;2022-10-22T12:39:46;22.35;;;13.20;;
29824;SDS011;16713;52.916;12.834;2022-10-22T12:42:14;20.38;;;13.55;;
29824;SDS011;16713;52.916;12.834;2022-10-22T12:44:42;22.48;;;14.23;;
29824;SDS011;16713;52.916;12.834;2022-10-22T12:47:12;19.85;;;12.75;;
29824;SDS011;16713;52.916;12.834;2022-10-22T12:49:43;17.58;;;12.77;;
29824;SDS011;16713;52.916;12.834;2022-10-22T12:52:17;19.08;;;11.13;;
29824;SDS011;16713;52.916;12.834;2022-10-22T12:54:46;18.10;;;11.02;;
29824;SDS011;16713;52.916;12.834;2022-10-22T12:57:17;17.77;;;10.48;;
29824;SDS011;16713;52.916;12.834;2022-10-22T12:59:45;18.73;;;11.32;;
29824;SDS011;16713;52.916;12.834;2022-10-22T13:02:22;14.30;;;9.50;;
29824;SDS011;16713;52.916;12.834;2022-10-22T13:08:08;14.15;;;7.38;;
29824;SDS011;16713;52.916;12.834;2022-10-22T13:10:37;14.95;;;7.43;;
29824;SDS011;16713;52.916;12.834;2022-10-22T13:13:27;12.95;;;7.53;;
29824;SDS011;16713;52.916;12.834;2022-10-22T13:15:55;9.38;;;6.55;;
29824;SDS011;16713;52.916;12.834;2022-10-22T13:18:22;11.27;;;5.88;;
29824;SDS011;16713;52.916;12.834;2022-10-22T13:20:51;9.43;;;5.47;;
29824;SDS011;16713;52.916;12.834;2022-10-22T13:23:23;10.68;;;5.70;;
29824;SDS011;16713;52.916;12.834;2022-10-22T13:25:55;11.45;;;5.47;;
29824;SDS011;16713;52.916;12.834;2022-10-22T13:28:22;16.40;;;5.28;;
29824;SDS011;16713;52.916;12.834;2022-10-22T13:30:53;11.50;;;5.70;;
29824;SDS011;16713;52.916;12.834;2022-10-22T13:36:05;11.93;;;5.35;;
29824;SDS011;16713;52.916;12.834;2022-10-22T13:38:33;13.45;;;4.35;;
29824;SDS011;16713;52.916;12.834;2022-10-22T13:40:59;13.45;;;5.65;;
29824;SDS011;16713;52.916;12.834;2022-10-22T13:43:28;10.88;;;4.05;;
29824;SDS011;16713;52.916;12.834;2022-10-22T13:45:56;11.85;;;4.57;;
29824;SDS011;16713;52.916;12.834;2022-10-22T13:48:25;10.18;;;4.35;;
29824;SDS011;16713;52.916;12.834;2022-10-22T13:50:54;15.93;;;5.47;;
29824;SDS011;16713;52.916;12.834;2022-10-22T13:53:22;13.52;;;5.18;;
29824;SDS011;16713;52.916;12.834;2022-10-22T13:55:50;9.23;;;4.75;;
29824;SDS011;16713;52.916;12.834;2022-10-22T13:58:17;15.45;;;4.07;;
29824;SDS011;16713;52.916;12.834;2022-10-22T14:00:46;14.95;;;4.18;;
29824;SDS011;16713;52.916;12.834;2022-10-22T14:03:16;10.30;;;3.38;;
29824;SDS011;16713;52.916;12.834;2022-10-22T14:05:46;7.72;;;3.95;;
29824;SDS011;16713;52.916;12.834;2022-10-22T14:08:14;12.32;;;4.47;;
29824;SDS011;16713;52.916;12.834;2022-10-22T14:10:42;10.85;;;3.58;;
29824;SDS011;16713;52.916;12.834;2022-10-22T14:13:09;9.80;;;4.57;;
29824;SDS011;16713;52.916;12.834;2022-10-22T14:15:36;10.73;;;3.25;;
29824;SDS011;16713;52.916;12.834;2022-10-22T14:18:04;7.72;;;3.22;;
29824;SDS011;16713;52.916;12.834;2022-10-22T14:20:33;7.47;;;3.50;;
29824;SDS011;16713;52.916;12.834;2022-10-22T14:23:13;8.95;;;3.40;;
29824;SDS011;16713;52.916;12.834;2022-10-22T14:25:47;10.45;;;3.33;;
29824;SDS011;16713;52.916;12.834;2022-10-22T14:28:17;15.30;;;3.83;;
29824;SDS011;16713;52.916;12.834;2022-10-22T14:30:44;12.15;;;4.13;;
29824;SDS011;16713;52.916;12.834;2022-10-22T14:33:18;13.63;;;4.20;;
29824;SDS011;16713;52.916;12.834;2022-10-22T14:35:56;14.27;;;6.55;;
29824;SDS011;16713;52.916;12.834;2022-10-22T14:38:23;15.32;;;7.00;;
29824;SDS011;16713;52.916;12.834;2022-10-22T14:40:49;14.15;;;6.00;;
29824;SDS011;16713;52.916;12.834;2022-10-22T14:45:50;7.97;;;3.92;;
29824;SDS011;16713;52.916;12.834;2022-10-22T14:48:16;10.18;;;3.97;;
29824;SDS011;16713;52.916;12.834;2022-10-22T14:50:48;11.73;;;3.25;;
29824;SDS011;16713;52.916;12.834;2022-10-22T14:53:14;6.53;;;3.17;;
29824;SDS011;16713;52.916;12.834;2022-10-22T14:55:44;9.45;;;3.35;;
29824;SDS011;16713;52.916;12.834;2022-10-22T14:58:12;14.02;;;4.32;;
29824;SDS011;16713;52.916;12.834;2022-10-22T15:00:39;8.27;;;3.72;;
29824;SDS011;16713;52.916;12.834;2022-10-22T15:03:07;4.22;;;2.72;;
29824;SDS011;16713;52.916;12.834;2022-10-22T15:05:33;10.90;;;4.40;;
29824;SDS011;16713;52.916;12.834;2022-10-22T15:08:01;13.77;;;3.70;;
29824;SDS011;16713;52.916;12.834;2022-10-22T15:10:27;12.73;;;4.07;;
29824;SDS011;16713;52.916;12.834;2022-10-22T15:12:54;13.13;;;3.78;;
29824;SDS011;16713;52.916;12.834;2022-10-22T15:15:20;12.00;;;3.92;;
29824;SDS011;16713;52.916;12.834;2022-10-22T15:17:48;11.55;;;4.78;;
29824;SDS011;16713;52.916;12.834;2022-10-22T15:20:15;12.73;;;5.20;;
29824;SDS011;16713;52.916;12.834;2022-10-22T15:22:41;18.05;;;7.60;;
29824;SDS011;16713;52.916;12.834;2022-10-22T15:25:08;13.38;;;7.15;;
29824;SDS011;16713;52.916;12.834;2022-10-22T15:27:35;16.83;;;7.68;;
29824;SDS011;16713;52.916;12.834;2022-10-22T15:30:02;12.15;;;5.65;;
29824;SDS011;16713;52.916;12.834;2022-10-22T15:32:29;9.02;;;4.50;;
29824;SDS011;16713;52.916;12.834;2022-10-22T15:34:58;8.57;;;4.95;;
29824;SDS011;16713;52.916;12.834;2022-10-22T15:37:26;8.45;;;3.35;;
29824;SDS011;16713;52.916;12.834;2022-10-22T15:39:52;11.38;;;3.58;;
29824;SDS011;16713;52.916;12.834;2022-10-22T15:42:19;6.85;;;3.35;;
29824;SDS011;16713;52.916;12.834;2022-10-22T15:44:45;20.45;;;4.78;;
29824;SDS011;16713;52.916;12.834;2022-10-22T15:47:11;10.48;;;4.13;;
29824;SDS011;16713;52.916;12.834;2022-10-22T15:49:38;14.95;;;4.90;;
29824;SDS011;16713;52.916;12.834;2022-10-22T15:52:05;7.20;;;3.30;;
29824;SDS011;16713;52.916;12.834;2022-10-22T15:54:41;11.13;;;4.32;;
29824;SDS011;16713;52.916;12.834;2022-10-22T15:57:08;14.55;;;5.50;;
29824;SDS011;16713;52.916;12.834;2022-10-22T15:59:36;10.32;;;3.85;;
29824;SDS011;16713;52.916;12.834;2022-10-22T16:02:03;11.57;;;4.00;;
29824;SDS011;16713;52.916;12.834;2022-10-22T16:04:29;12.43;;;4.38;;
29824;SDS011;16713;52.916;12.834;2022-10-22T16:06:56;11.60;;;3.67;;
29824;SDS011;16713;52.916;12.834;2022-10-22T16:09:23;4.70;;;3.15;;
29824;SDS011;16713;52.916;12.834;2022-10-22T16:11:52;10.65;;;3.78;;
29824;SDS011;16713;52.916;12.834;2022-10-22T16:14:20;9.13;;;3.65;;
29824;SDS011;16713;52.916;12.834;2022-10-22T16:16:49;7.35;;;2.95;;
29824;SDS011;16713;52.916;12.834;2022-10-22T16:19:18;7.88;;;3.00;;